Station Historical Data
Daily Summary for May 19, 2011 Units:  Both    English   Metric
« Previous Day
Next Day »
Daily Weekly Monthly Yearly Custom
  High: Low: Average:
Temperature: 75.1 °F /  23.9 °C 53.5 °F /  11.9 °C 69.6 °F /  20.9 °C
Dew Point: 58.4 °F /  14.7 °C 50.3 °F /  10.2 °C 56 °F /  13.3 °C
Humidity: 90% 49% 63%
Wind Speed: 9.0mph /  14.5km/h - 3mph /  4.8km/h
Wind Gust: 13.0mph /  20.9km/h - -
Wind- - ESE
Pressure: 30.05 in /  1017.5 hPa 29.92 in /  1013.1 hPa -
Precipitation: 0.00 in /  0 mm    
Historical Graphs
 
 
Tabular Data for May 19, 2011
Time Temperature Dew Point Pressure Wind Wind Speed Wind Gust Humidity Rainfall Rate (Hourly) Conditions
00:00 57.1 °F /  13.9 °C 52.6 °F /  11.4 °C 29.92in /  1013.1hPa ESE 2.0mph /  3.2km/h 4.0mph /  6.4km/h 85% 0.00in /  0mm
00:30 56.7 °F /  13.7 °C 51.9 °F /  11.1 °C 29.92in /  1013.1hPa SE 2.0mph /  3.2km/h 5.0mph /  8km/h 84% 0.00in /  0mm
01:00 56.6 °F /  13.7 °C 51.5 °F /  10.8 °C 29.92in /  1013.1hPa SE 3.0mph /  4.8km/h 5.0mph /  8km/h 83% 0.00in /  0mm
01:30 56.4 °F /  13.6 °C 51.3 °F /  10.7 °C 29.93in /  1013.4hPa SE 2.0mph /  3.2km/h 4.0mph /  6.4km/h 83% 0.00in /  0mm
02:00 55.8 °F /  13.2 °C 51.0 °F /  10.6 °C 29.94in /  1013.8hPa ESE 1.0mph /  1.6km/h 3.0mph /  4.8km/h 84% 0.00in /  0mm
02:30 55.2 °F /  12.9 °C 50.5 °F /  10.3 °C 29.92in /  1013.1hPa ESE 3.0mph /  4.8km/h 6.0mph /  9.7km/h 84% 0.00in /  0mm
03:00 55.2 °F /  12.9 °C 50.5 °F /  10.3 °C 29.93in /  1013.4hPa SE 3.0mph /  4.8km/h 6.0mph /  9.7km/h 84% 0.00in /  0mm
03:30 55.1 °F /  12.8 °C 50.4 °F /  10.2 °C 29.93in /  1013.4hPa SE 2.0mph /  3.2km/h 5.0mph /  8km/h 84% 0.00in /  0mm
04:00 54.6 °F /  12.6 °C 50.8 °F /  10.4 °C 29.95in /  1014.1hPa ESE 1.0mph /  1.6km/h 3.0mph /  4.8km/h 87% 0.00in /  0mm
04:30 54.1 °F /  12.3 °C 50.3 °F /  10.2 °C 29.95in /  1014.1hPa East 2.0mph /  3.2km/h 3.0mph /  4.8km/h 87% 0.00in /  0mm
05:00 54.4 °F /  12.4 °C 50.9 °F /  10.5 °C 29.95in /  1014.1hPa SE 3.0mph /  4.8km/h 5.0mph /  8km/h 88% 0.00in /  0mm
05:30 54.8 °F /  12.7 °C 51.6 °F /  10.9 °C 29.96in /  1014.4hPa ESE 2.0mph /  3.2km/h 4.0mph /  6.4km/h 89% 0.00in /  0mm
06:00 54.1 °F /  12.3 °C 51.2 °F /  10.7 °C 29.96in /  1014.4hPa ESE 3.0mph /  4.8km/h 6.0mph /  9.7km/h 90% 0.00in /  0mm
06:30 53.7 °F /  12.1 °C 50.8 °F /  10.4 °C 29.96in /  1014.4hPa ESE 2.0mph /  3.2km/h 6.0mph /  9.7km/h 90% 0.00in /  0mm
07:00 53.5 °F /  11.9 °C 50.6 °F /  10.3 °C 29.97in /  1014.8hPa SE 3.0mph /  4.8km/h 6.0mph /  9.7km/h 90% 0.00in /  0mm
07:30 53.9 °F /  12.2 °C 51.0 °F /  10.6 °C 29.99in /  1015.5hPa SE 2.0mph /  3.2km/h 6.0mph /  9.7km/h 90% 0.00in /  0mm
08:00 54.2 °F /  12.3 °C 51.0 °F /  10.6 °C 30.01in /  1016.1hPa East 1.0mph /  1.6km/h 2.0mph /  3.2km/h 89% 0.00in /  0mm
08:30 55.5 °F /  13.1 °C 51.7 °F /  10.9 °C 30.01in /  1016.1hPa East 2.0mph /  3.2km/h 5.0mph /  8km/h 87% 0.00in /  0mm
09:00 56.2 °F /  13.4 °C 52.1 °F /  11.2 °C 30.02in /  1016.5hPa ESE 4.0mph /  6.4km/h 8.0mph /  12.9km/h 86% 0.00in /  0mm
09:30 59.3 °F /  15.2 °C 53.1 °F /  11.7 °C 30.03in /  1016.8hPa SE 4.0mph /  6.4km/h 8.0mph /  12.9km/h 80% 0.00in /  0mm
10:00 60.5 °F /  15.8 °C 53.6 °F /  12 °C 30.05in /  1017.5hPa SE 4.0mph /  6.4km/h 8.0mph /  12.9km/h 78% 0.00in /  0mm
10:30 61.1 °F /  16.2 °C 54.9 °F /  12.7 °C 30.04in /  1017.2hPa SSE 3.0mph /  4.8km/h 7.0mph /  11.3km/h 80% 0.00in /  0mm
11:00 63.1 °F /  17.3 °C 54.3 °F /  12.4 °C 30.04in /  1017.2hPa SE 4.0mph /  6.4km/h 8.0mph /  12.9km/h 73% 0.00in /  0mm
11:24 66.5 °F /  19.2 °C 56.0 °F /  13.3 °C 30.05in /  1017.5hPa SE 6.0mph /  9.7km/h 7.0mph /  11.3km/h 69% 0.00in /  0mm
11:33 65.8 °F /  18.8 °C 55.8 °F /  13.2 °C 30.05in /  1017.5hPa SSE 5.0mph /  8km/h 10.0mph /  16.1km/h 70% 0.00in /  0mm
11:34 67.3 °F /  19.6 °C 56.4 °F /  13.6 °C 30.05in /  1017.5hPa SSW 6.0mph /  9.7km/h 6.0mph /  9.7km/h 68% 0.00in /  0mm
11:35 67.5 °F /  19.7 °C 56.6 °F /  13.7 °C 30.05in /  1017.5hPa SSE 5.0mph /  8km/h 6.0mph /  9.7km/h 68% 0.00in /  0mm
11:39 68.1 °F /  20.1 °C 56.7 °F /  13.7 °C 30.05in /  1017.5hPa SSW 4.0mph /  6.4km/h 8.0mph /  12.9km/h 67% 0.00in /  0mm
11:44 68.3 °F /  20.2 °C 55.2 °F /  12.9 °C 30.05in /  1017.5hPa South 6.0mph /  9.7km/h 9.0mph /  14.5km/h 63% 0.00in /  0mm
11:49 68.5 °F /  20.3 °C 57.5 °F /  14.2 °C 30.05in /  1017.5hPa SSW 4.0mph /  6.4km/h 7.0mph /  11.3km/h 68% 0.00in /  0mm
11:54 68.6 °F /  20.3 °C 56.4 °F /  13.6 °C 30.05in /  1017.5hPa SSW 5.0mph /  8km/h 8.0mph /  12.9km/h 65% 0.00in /  0mm
11:55 68.6 °F /  20.3 °C 56.0 °F /  13.3 °C 30.05in /  1017.5hPa SSW 9.0mph /  14.5km/h 9.0mph /  14.5km/h 64% 0.00in /  0mm
11:56 68.6 °F /  20.3 °C 54.2 °F /  12.3 °C 30.05in /  1017.5hPa SSW 5.0mph /  8km/h 9.0mph /  14.5km/h 60% 0.00in /  0mm
12:00 68.7 °F /  20.4 °C 55.6 °F /  13.1 °C 30.05in /  1017.5hPa SSW 3.0mph /  4.8km/h 7.0mph /  11.3km/h 63% 0.00in /  0mm
12:01 68.9 °F /  20.5 °C 57.1 °F /  13.9 °C 30.05in /  1017.5hPa SSE 7.0mph /  11.3km/h 7.0mph /  11.3km/h 66% 0.00in /  0mm
12:05 69.2 °F /  20.7 °C 55.6 °F /  13.1 °C 30.05in /  1017.5hPa SSE 6.0mph /  9.7km/h 8.0mph /  12.9km/h 62% 0.00in /  0mm
12:07 69.3 °F /  20.7 °C 56.2 °F /  13.4 °C 30.05in /  1017.5hPa South 4.0mph /  6.4km/h 8.0mph /  12.9km/h 63% 0.00in /  0mm
12:12 70.0 °F /  21.1 °C 55.5 °F /  13.1 °C 30.05in /  1017.5hPa SSE 7.0mph /  11.3km/h 9.0mph /  14.5km/h 60% 0.00in /  0mm
12:17 69.8 °F /  21 °C 54.8 °F /  12.7 °C 30.05in /  1017.5hPa SSW 5.0mph /  8km/h 6.0mph /  9.7km/h 59% 0.00in /  0mm
12:22 69.3 °F /  20.7 °C 55.3 °F /  12.9 °C 30.05in /  1017.5hPa SW 4.0mph /  6.4km/h 9.0mph /  14.5km/h 61% 0.00in /  0mm
12:23 69.3 °F /  20.7 °C 55.3 °F /  12.9 °C 30.05in /  1017.5hPa SSE 7.0mph /  11.3km/h 9.0mph /  14.5km/h 61% 0.00in /  0mm
12:28 69.5 °F /  20.8 °C 55.9 °F /  13.3 °C 30.05in /  1017.5hPa South 5.0mph /  8km/h 10.0mph /  16.1km/h 62% 0.00in /  0mm
12:33 69.4 °F /  20.8 °C 57.1 °F /  13.9 °C 30.05in /  1017.5hPa SSW 5.0mph /  8km/h 7.0mph /  11.3km/h 65% 0.00in /  0mm
12:34 69.5 °F /  20.8 °C 57.2 °F /  14 °C 30.05in /  1017.5hPa SSW 5.0mph /  8km/h 7.0mph /  11.3km/h 65% 0.00in /  0mm
12:37 69.9 °F /  21.1 °C 56.3 °F /  13.5 °C 30.05in /  1017.5hPa SSW 5.0mph /  8km/h 8.0mph /  12.9km/h 62% 0.00in /  0mm
12:39 70.0 °F /  21.1 °C 56.0 °F /  13.3 °C 30.05in /  1017.5hPa SSE 3.0mph /  4.8km/h 9.0mph /  14.5km/h 61% 0.00in /  0mm
12:44 70.0 °F /  21.1 °C 55.5 °F /  13.1 °C 30.05in /  1017.5hPa SSW 6.0mph /  9.7km/h 10.0mph /  16.1km/h 60% 0.00in /  0mm
12:49 69.8 °F /  21 °C 54.8 °F /  12.7 °C 30.05in /  1017.5hPa SSE 5.0mph /  8km/h 7.0mph /  11.3km/h 59% 0.00in /  0mm
12:54 69.6 °F /  20.9 °C 56.0 °F /  13.3 °C 30.04in /  1017.2hPa SW 3.0mph /  4.8km/h 5.0mph /  8km/h 62% 0.00in /  0mm
12:55 69.7 °F /  20.9 °C 57.0 °F /  13.9 °C 30.04in /  1017.2hPa SSE 3.0mph /  4.8km/h 4.0mph /  6.4km/h 64% 0.00in /  0mm
12:57 70.0 °F /  21.1 °C 56.0 °F /  13.3 °C 30.05in /  1017.5hPa SE 5.0mph /  8km/h 7.0mph /  11.3km/h 61% 0.00in /  0mm
12:59 70.1 °F /  21.2 °C 55.1 °F /  12.8 °C 30.05in /  1017.5hPa SSE 8.0mph /  12.9km/h 8.0mph /  12.9km/h 59% 0.00in /  0mm
13:04 69.9 °F /  21.1 °C 54.5 °F /  12.5 °C 30.05in /  1017.5hPa South 6.0mph /  9.7km/h 6.0mph /  9.7km/h 58% 0.00in /  0mm
13:05 69.9 °F /  21.1 °C 54.5 °F /  12.5 °C 30.05in /  1017.5hPa South 6.0mph /  9.7km/h 6.0mph /  9.7km/h 58% 0.00in /  0mm
13:10 70.4 °F /  21.3 °C 56.8 °F /  13.8 °C 30.05in /  1017.5hPa WSW 3.0mph /  4.8km/h 7.0mph /  11.3km/h 62% 0.00in /  0mm
13:15 70.4 °F /  21.3 °C 54.9 °F /  12.7 °C 30.05in /  1017.5hPa SW 6.0mph /  9.7km/h 9.0mph /  14.5km/h 58% 0.00in /  0mm
13:20 70.4 °F /  21.3 °C 54.5 °F /  12.5 °C 30.05in /  1017.5hPa SW 5.0mph /  8km/h 8.0mph /  12.9km/h 57% 0.00in /  0mm
13:25 70.8 °F /  21.6 °C 55.3 °F /  12.9 °C 30.04in /  1017.2hPa SSE 4.0mph /  6.4km/h 8.0mph /  12.9km/h 58% 0.00in /  0mm
13:26 70.9 °F /  21.6 °C 55.9 °F /  13.3 °C 30.04in /  1017.2hPa SW 4.0mph /  6.4km/h 8.0mph /  12.9km/h 59% 0.00in /  0mm
13:30 70.9 °F /  21.6 °C 55.9 °F /  13.3 °C 30.04in /  1017.2hPa SSE 4.0mph /  6.4km/h 6.0mph /  9.7km/h 59% 0.00in /  0mm
13:31 71.0 °F /  21.7 °C 56.9 °F /  13.8 °C 30.04in /  1017.2hPa SE 7.0mph /  11.3km/h 7.0mph /  11.3km/h 61% 0.00in /  0mm
13:36 71.3 °F /  21.8 °C 54.3 °F /  12.4 °C 30.04in /  1017.2hPa SSE 6.0mph /  9.7km/h 8.0mph /  12.9km/h 55% 0.00in /  0mm
13:41 71.8 °F /  22.1 °C 54.8 °F /  12.7 °C 30.04in /  1017.2hPa Calm   5.0mph /  8km/h 55% 0.00in /  0mm
13:46 72.0 °F /  22.2 °C 55.5 °F /  13.1 °C 30.04in /  1017.2hPa SE 6.0mph /  9.7km/h 8.0mph /  12.9km/h 56% 0.00in /  0mm
13:47 71.5 °F /  21.9 °C 55.5 °F /  13.1 °C 30.04in /  1017.2hPa East 6.0mph /  9.7km/h 8.0mph /  12.9km/h 57% 0.00in /  0mm
13:53 71.3 °F /  21.8 °C 54.3 °F /  12.4 °C 30.04in /  1017.2hPa SE 4.0mph /  6.4km/h 7.0mph /  11.3km/h 55% 0.00in /  0mm
13:57 71.4 °F /  21.9 °C 55.9 °F /  13.3 °C 30.04in /  1017.2hPa SSW 2.0mph /  3.2km/h 7.0mph /  11.3km/h 58% 0.00in /  0mm
13:58 71.5 °F /  21.9 °C 57.8 °F /  14.3 °C 30.04in /  1017.2hPa SE 2.0mph /  3.2km/h 5.0mph /  8km/h 62% 0.00in /  0mm
13:59 71.8 °F /  22.1 °C 56.7 °F /  13.7 °C 30.03in /  1016.8hPa SSE 3.0mph /  4.8km/h 4.0mph /  6.4km/h 59% 0.00in /  0mm
14:04 72.5 °F /  22.5 °C 55.4 °F /  13 °C 30.03in /  1016.8hPa SSW 3.0mph /  4.8km/h 6.0mph /  9.7km/h 55% 0.00in /  0mm
14:09 72.9 °F /  22.7 °C 56.8 °F /  13.8 °C 30.03in /  1016.8hPa South 8.0mph /  12.9km/h 8.0mph /  12.9km/h 57% 0.00in /  0mm
14:10 72.9 °F /  22.7 °C 56.8 °F /  13.8 °C 30.03in /  1016.8hPa SSE 7.0mph /  11.3km/h 8.0mph /  12.9km/h 57% 0.00in /  0mm
14:15 72.6 °F /  22.6 °C 54.5 °F /  12.5 °C 30.03in /  1016.8hPa SSE 3.0mph /  4.8km/h 8.0mph /  12.9km/h 53% 0.00in /  0mm
14:20 72.4 °F /  22.4 °C 54.8 °F /  12.7 °C 30.03in /  1016.8hPa SSE 6.0mph /  9.7km/h 10.0mph /  16.1km/h 54% 0.00in /  0mm
14:25 72.4 °F /  22.4 °C 54.3 °F /  12.4 °C 30.02in /  1016.5hPa SE 1.0mph /  1.6km/h 8.0mph /  12.9km/h 53% 0.00in /  0mm
14:26 72.4 °F /  22.4 °C 54.3 °F /  12.4 °C 30.02in /  1016.5hPa ESE 4.0mph /  6.4km/h 6.0mph /  9.7km/h 53% 0.00in /  0mm
14:31 72.9 °F /  22.7 °C 55.8 °F /  13.2 °C 30.02in /  1016.5hPa SSE 3.0mph /  4.8km/h 4.0mph /  6.4km/h 55% 0.00in /  0mm
14:32 73.0 °F /  22.8 °C 55.9 °F /  13.3 °C 30.03in /  1016.8hPa SE 7.0mph /  11.3km/h 7.0mph /  11.3km/h 55% 0.00in /  0mm
14:36 73.2 °F /  22.9 °C 55.1 °F /  12.8 °C 30.02in /  1016.5hPa SSW 1.0mph /  1.6km/h 4.0mph /  6.4km/h 53% 0.00in /  0mm
14:38 73.7 °F /  23.2 °C 56.5 °F /  13.6 °C 30.02in /  1016.5hPa South 7.0mph /  11.3km/h 7.0mph /  11.3km/h 55% 0.00in /  0mm
14:43 73.5 °F /  23.1 °C 54.8 °F /  12.7 °C 30.02in /  1016.5hPa SSE 3.0mph /  4.8km/h 6.0mph /  9.7km/h 52% 0.00in /  0mm
14:48 73.7 °F /  23.2 °C 55.0 °F /  12.8 °C 30.02in /  1016.5hPa ESE 4.0mph /  6.4km/h 8.0mph /  12.9km/h 52% 0.00in /  0mm
14:53 73.3 °F /  22.9 °C 53.6 °F /  12 °C 30.02in /  1016.5hPa ESE 5.0mph /  8km/h 8.0mph /  12.9km/h 50% 0.00in /  0mm
14:54 73.3 °F /  22.9 °C 53.6 °F /  12 °C 30.02in /  1016.5hPa ESE 4.0mph /  6.4km/h 8.0mph /  12.9km/h 50% 0.00in /  0mm
14:58 73.2 °F /  22.9 °C 53.5 °F /  11.9 °C 30.01in /  1016.1hPa ESE 2.0mph /  3.2km/h 2.0mph /  3.2km/h 50% 0.00in /  0mm
15:00 73.3 °F /  22.9 °C 54.6 °F /  12.6 °C 30.01in /  1016.1hPa SW 3.0mph /  4.8km/h 4.0mph /  6.4km/h 52% 0.00in /  0mm
15:04 73.5 °F /  23.1 °C 55.3 °F /  12.9 °C 30.01in /  1016.1hPa South 9.0mph /  14.5km/h 9.0mph /  14.5km/h 53% 0.00in /  0mm
15:09 73.5 °F /  23.1 °C 54.8 °F /  12.7 °C 30.01in /  1016.1hPa SSW 4.0mph /  6.4km/h 7.0mph /  11.3km/h 52% 0.00in /  0mm
15:11 73.6 °F /  23.1 °C 55.4 °F /  13 °C 30.01in /  1016.1hPa SSW 2.0mph /  3.2km/h 5.0mph /  8km/h 53% 0.00in /  0mm
15:14 73.6 °F /  23.1 °C 55.4 °F /  13 °C 30.01in /  1016.1hPa ENE 6.0mph /  9.7km/h 13.0mph /  20.9km/h 53% 0.00in /  0mm
15:19 73.5 °F /  23.1 °C 54.3 °F /  12.4 °C 30.01in /  1016.1hPa ESE 7.0mph /  11.3km/h 8.0mph /  12.9km/h 51% 0.00in /  0mm
15:24 73.6 °F /  23.1 °C 54.4 °F /  12.4 °C 30.01in /  1016.1hPa ESE 3.0mph /  4.8km/h 6.0mph /  9.7km/h 51% 0.00in /  0mm
15:29 74.0 °F /  23.3 °C 54.7 °F /  12.6 °C 30.01in /  1016.1hPa SSE 2.0mph /  3.2km/h 4.0mph /  6.4km/h 51% 0.00in /  0mm
15:34 74.5 °F /  23.6 °C 57.8 °F /  14.3 °C 30.01in /  1016.1hPa SSW 2.0mph /  3.2km/h 6.0mph /  9.7km/h 56% 0.00in /  0mm
15:35 74.5 °F /  23.6 °C 57.8 °F /  14.3 °C 30.01in /  1016.1hPa SW 2.0mph /  3.2km/h 5.0mph /  8km/h 56% 0.00in /  0mm
15:36 74.5 °F /  23.6 °C 54.1 °F /  12.3 °C 30.01in /  1016.1hPa SSE 2.0mph /  3.2km/h 5.0mph /  8km/h 49% 0.00in /  0mm
15:40 74.5 °F /  23.6 °C 56.3 °F /  13.5 °C 30.01in /  1016.1hPa SE 3.0mph /  4.8km/h 5.0mph /  8km/h 53% 0.00in /  0mm
15:45 74.3 °F /  23.5 °C 55.0 °F /  12.8 °C 30.01in /  1016.1hPa SE 1.0mph /  1.6km/h 7.0mph /  11.3km/h 51% 0.00in /  0mm
15:50 74.3 °F /  23.5 °C 56.1 °F /  13.4 °C 30.01in /  1016.1hPa SE 1.0mph /  1.6km/h 6.0mph /  9.7km/h 53% 0.00in /  0mm
15:51 74.3 °F /  23.5 °C 54.5 °F /  12.5 °C 30.00in /  1015.8hPa ESE 1.0mph /  1.6km/h 6.0mph /  9.7km/h 50% 0.00in /  0mm
15:55 74.0 °F /  23.3 °C 54.2 °F /  12.3 °C 30.01in /  1016.1hPa ENE 3.0mph /  4.8km/h 10.0mph /  16.1km/h 50% 0.00in /  0mm
15:56 74.0 °F /  23.3 °C 54.2 °F /  12.3 °C 30.01in /  1016.1hPa ENE 3.0mph /  4.8km/h 8.0mph /  12.9km/h 50% 0.00in /  0mm
15:57 74.0 °F /  23.3 °C 55.8 °F /  13.2 °C 30.00in /  1015.8hPa ESE 5.0mph /  8km/h 6.0mph /  9.7km/h 53% 0.00in /  0mm
16:00 74.0 °F /  23.3 °C 54.7 °F /  12.6 °C 30.01in /  1016.1hPa SSE 2.0mph /  3.2km/h 4.0mph /  6.4km/h 51% 0.00in /  0mm
16:01 74.1 °F /  23.4 °C 54.8 °F /  12.7 °C 30.01in /  1016.1hPa East 6.0mph /  9.7km/h 7.0mph /  11.3km/h 51% 0.00in /  0mm
16:06 74.2 °F /  23.4 °C 55.5 °F /  13.1 °C 30.00in /  1015.8hPa ESE 3.0mph /  4.8km/h 7.0mph /  11.3km/h 52% 0.00in /  0mm
16:11 74.4 °F /  23.6 °C 57.2 °F /  14 °C 30.00in /  1015.8hPa ESE 6.0mph /  9.7km/h 9.0mph /  14.5km/h 55% 0.00in /  0mm
16:16 74.1 °F /  23.4 °C 54.8 °F /  12.7 °C 30.00in /  1015.8hPa NE 4.0mph /  6.4km/h 6.0mph /  9.7km/h 51% 0.00in /  0mm
16:21 74.0 °F /  23.3 °C 57.3 °F /  14.1 °C 30.00in /  1015.8hPa South 4.0mph /  6.4km/h 6.0mph /  9.7km/h 56% 0.00in /  0mm
16:26 74.3 °F /  23.5 °C 56.6 °F /  13.7 °C 30.00in /  1015.8hPa ESE 3.0mph /  4.8km/h 7.0mph /  11.3km/h 54% 0.00in /  0mm
16:27 74.3 °F /  23.5 °C 57.1 °F /  13.9 °C 30.00in /  1015.8hPa ENE 4.0mph /  6.4km/h 7.0mph /  11.3km/h 55% 0.00in /  0mm
16:31 74.2 °F /  23.4 °C 55.5 °F /  13.1 °C 30.00in /  1015.8hPa ENE 4.0mph /  6.4km/h 8.0mph /  12.9km/h 52% 0.00in /  0mm
16:32 74.1 °F /  23.4 °C 55.4 °F /  13 °C 30.00in /  1015.8hPa East 3.0mph /  4.8km/h 8.0mph /  12.9km/h 52% 0.00in /  0mm
16:36 74.1 °F /  23.4 °C 56.4 °F /  13.6 °C 30.00in /  1015.8hPa NE 5.0mph /  8km/h 5.0mph /  8km/h 54% 0.00in /  0mm
16:37 74.1 °F /  23.4 °C 55.4 °F /  13 °C 30.00in /  1015.8hPa East 3.0mph /  4.8km/h 5.0mph /  8km/h 52% 0.00in /  0mm
16:40 74.1 °F /  23.4 °C 55.4 °F /  13 °C 30.00in /  1015.8hPa East 3.0mph /  4.8km/h 6.0mph /  9.7km/h 52% 0.00in /  0mm
16:42 74.2 °F /  23.4 °C 55.5 °F /  13.1 °C 30.00in /  1015.8hPa South 3.0mph /  4.8km/h 6.0mph /  9.7km/h 52% 0.00in /  0mm
16:45 74.3 °F /  23.5 °C 56.6 °F /  13.7 °C 30.00in /  1015.8hPa SE 3.0mph /  4.8km/h 5.0mph /  8km/h 54% 0.00in /  0mm
16:50 74.5 °F /  23.6 °C 55.7 °F /  13.2 °C 29.99in /  1015.5hPa ESE 6.0mph /  9.7km/h 6.0mph /  9.7km/h 52% 0.00in /  0mm
16:55 74.8 °F /  23.8 °C 57.6 °F /  14.2 °C 29.99in /  1015.5hPa SE 3.0mph /  4.8km/h 4.0mph /  6.4km/h 55% 0.00in /  0mm
16:56 74.8 °F /  23.8 °C 57.6 °F /  14.2 °C 29.99in /  1015.5hPa SE 5.0mph /  8km/h 5.0mph /  8km/h 55% 0.00in /  0mm
16:58 74.8 °F /  23.8 °C 56.0 °F /  13.3 °C 29.99in /  1015.5hPa ESE 4.0mph /  6.4km/h 7.0mph /  11.3km/h 52% 0.00in /  0mm
17:01 74.8 °F /  23.8 °C 56.5 °F /  13.6 °C 29.99in /  1015.5hPa SE 4.0mph /  6.4km/h 6.0mph /  9.7km/h 53% 0.00in /  0mm
17:03 74.8 °F /  23.8 °C 57.1 °F /  13.9 °C 30.00in /  1015.8hPa SSE 6.0mph /  9.7km/h 8.0mph /  12.9km/h 54% 0.00in /  0mm
17:08 74.6 °F /  23.7 °C 56.9 °F /  13.8 °C 29.99in /  1015.5hPa East 2.0mph /  3.2km/h 9.0mph /  14.5km/h 54% 0.00in /  0mm
17:13 75.1 °F /  23.9 °C 58.3 °F /  14.6 °C 29.99in /  1015.5hPa SSE 3.0mph /  4.8km/h 6.0mph /  9.7km/h 56% 0.00in /  0mm
17:18 74.8 °F /  23.8 °C 56.5 °F /  13.6 °C 29.99in /  1015.5hPa East 4.0mph /  6.4km/h 8.0mph /  12.9km/h 53% 0.00in /  0mm
17:23 74.3 °F /  23.5 °C 55.6 °F /  13.1 °C 30.00in /  1015.8hPa ESE 5.0mph /  8km/h 5.0mph /  8km/h 52% 0.00in /  0mm
17:28 74.2 °F /  23.4 °C 56.0 °F /  13.3 °C 29.99in /  1015.5hPa ENE 2.0mph /  3.2km/h 5.0mph /  8km/h 53% 0.00in /  0mm
17:29 74.3 °F /  23.5 °C 56.6 °F /  13.7 °C 29.99in /  1015.5hPa ENE 3.0mph /  4.8km/h 4.0mph /  6.4km/h 54% 0.00in /  0mm
17:33 74.3 °F /  23.5 °C 55.6 °F /  13.1 °C 29.99in /  1015.5hPa ENE 1.0mph /  1.6km/h 4.0mph /  6.4km/h 52% 0.00in /  0mm
17:34 74.3 °F /  23.5 °C 56.6 °F /  13.7 °C 30.00in /  1015.8hPa East 4.0mph /  6.4km/h 4.0mph /  6.4km/h 54% 0.00in /  0mm
17:35 74.3 °F /  23.5 °C 56.1 °F /  13.4 °C 29.99in /  1015.5hPa ESE 3.0mph /  4.8km/h 6.0mph /  9.7km/h 53% 0.00in /  0mm
17:39 74.6 °F /  23.7 °C 56.9 °F /  13.8 °C 29.99in /  1015.5hPa East 4.0mph /  6.4km/h 6.0mph /  9.7km/h 54% 0.00in /  0mm
17:40 74.6 °F /  23.7 °C 56.4 °F /  13.6 °C 29.99in /  1015.5hPa East 4.0mph /  6.4km/h 7.0mph /  11.3km/h 53% 0.00in /  0mm
17:45 74.6 °F /  23.7 °C 56.4 °F /  13.6 °C 29.99in /  1015.5hPa ENE 4.0mph /  6.4km/h 7.0mph /  11.3km/h 53% 0.00in /  0mm
17:46 74.5 °F /  23.6 °C 56.3 °F /  13.5 °C 29.99in /  1015.5hPa ESE 3.0mph /  4.8km/h 7.0mph /  11.3km/h 53% 0.00in /  0mm
17:50 74.6 °F /  23.7 °C 56.9 °F /  13.8 °C 29.99in /  1015.5hPa NE 4.0mph /  6.4km/h 5.0mph /  8km/h 54% 0.00in /  0mm
17:51 74.6 °F /  23.7 °C 56.9 °F /  13.8 °C 29.99in /  1015.5hPa ENE 2.0mph /  3.2km/h 6.0mph /  9.7km/h 54% 0.00in /  0mm
17:52 74.6 °F /  23.7 °C 56.9 °F /  13.8 °C 29.99in /  1015.5hPa East 4.0mph /  6.4km/h 6.0mph /  9.7km/h 54% 0.00in /  0mm
17:56 74.2 °F /  23.4 °C 55.5 °F /  13.1 °C 29.99in /  1015.5hPa ESE 4.0mph /  6.4km/h 7.0mph /  11.3km/h 52% 0.00in /  0mm
17:57 74.1 °F /  23.4 °C 55.9 °F /  13.3 °C 29.99in /  1015.5hPa ESE 3.0mph /  4.8km/h 6.0mph /  9.7km/h 53% 0.00in /  0mm
18:01 73.9 °F /  23.3 °C 55.7 °F /  13.2 °C 29.99in /  1015.5hPa ESE 4.0mph /  6.4km/h 6.0mph /  9.7km/h 53% 0.00in /  0mm
18:07 73.7 °F /  23.2 °C 56.5 °F /  13.6 °C 29.99in /  1015.5hPa East 3.0mph /  4.8km/h 4.0mph /  6.4km/h 55% 0.00in /  0mm
18:11 73.8 °F /  23.2 °C 56.1 °F /  13.4 °C 29.99in /  1015.5hPa ESE 6.0mph /  9.7km/h 7.0mph /  11.3km/h 54% 0.00in /  0mm
18:16 73.7 °F /  23.2 °C 56.0 °F /  13.3 °C 29.99in /  1015.5hPa ESE 4.0mph /  6.4km/h 6.0mph /  9.7km/h 54% 0.00in /  0mm
18:21 73.7 °F /  23.2 °C 55.5 °F /  13.1 °C 29.99in /  1015.5hPa ESE 5.0mph /  8km/h 6.0mph /  9.7km/h 53% 0.00in /  0mm
18:27 73.7 °F /  23.2 °C 56.0 °F /  13.3 °C 29.99in /  1015.5hPa ESE 5.0mph /  8km/h 6.0mph /  9.7km/h 54% 0.00in /  0mm
18:32 73.8 °F /  23.2 °C 56.6 °F /  13.7 °C 29.99in /  1015.5hPa SE 3.0mph /  4.8km/h 8.0mph /  12.9km/h 55% 0.00in /  0mm
18:33 73.9 °F /  23.3 °C 57.2 °F /  14 °C 29.98in /  1015.1hPa SE 5.0mph /  8km/h 8.0mph /  12.9km/h 56% 0.00in /  0mm
18:34 74.0 °F /  23.3 °C 56.8 °F /  13.8 °C 29.99in /  1015.5hPa ESE 6.0mph /  9.7km/h 6.0mph /  9.7km/h 55% 0.00in /  0mm
18:36 74.0 °F /  23.3 °C 56.3 °F /  13.5 °C 29.98in /  1015.1hPa SE 2.0mph /  3.2km/h 7.0mph /  11.3km/h 54% 0.00in /  0mm
18:41 74.0 °F /  23.3 °C 56.8 °F /  13.8 °C 29.99in /  1015.5hPa East 4.0mph /  6.4km/h 7.0mph /  11.3km/h 55% 0.00in /  0mm
18:42 73.9 °F /  23.3 °C 56.2 °F /  13.4 °C 29.99in /  1015.5hPa ESE 4.0mph /  6.4km/h 7.0mph /  11.3km/h 54% 0.00in /  0mm
18:46 74.0 °F /  23.3 °C 56.8 °F /  13.8 °C 29.99in /  1015.5hPa East 4.0mph /  6.4km/h 5.0mph /  8km/h 55% 0.00in /  0mm
18:51 74.0 °F /  23.3 °C 56.8 °F /  13.8 °C 29.99in /  1015.5hPa East 2.0mph /  3.2km/h 6.0mph /  9.7km/h 55% 0.00in /  0mm
18:56 74.0 °F /  23.3 °C 56.8 °F /  13.8 °C 29.98in /  1015.1hPa East 4.0mph /  6.4km/h 4.0mph /  6.4km/h 55% 0.00in /  0mm
18:57 74.0 °F /  23.3 °C 56.8 °F /  13.8 °C 29.98in /  1015.1hPa East 3.0mph /  4.8km/h 4.0mph /  6.4km/h 55% 0.00in /  0mm
18:58 74.0 °F /  23.3 °C 56.8 °F /  13.8 °C 29.98in /  1015.1hPa East 3.0mph /  4.8km/h 4.0mph /  6.4km/h 55% 0.00in /  0mm
19:02 74.0 °F /  23.3 °C 57.3 °F /  14.1 °C 29.98in /  1015.1hPa East 3.0mph /  4.8km/h 5.0mph /  8km/h 56% 0.00in /  0mm
19:03 74.0 °F /  23.3 °C 56.8 °F /  13.8 °C 29.98in /  1015.1hPa ESE 4.0mph /  6.4km/h 5.0mph /  8km/h 55% 0.00in /  0mm
19:08 74.1 °F /  23.4 °C 57.4 °F /  14.1 °C 29.98in /  1015.1hPa SE 2.0mph /  3.2km/h 5.0mph /  8km/h 56% 0.00in /  0mm
19:13 74.3 °F /  23.5 °C 57.1 °F /  13.9 °C 29.98in /  1015.1hPa ESE 2.0mph /  3.2km/h 5.0mph /  8km/h 55% 0.00in /  0mm
19:18 74.2 °F /  23.4 °C 57.0 °F /  13.9 °C 29.99in /  1015.5hPa East 5.0mph /  8km/h 5.0mph /  8km/h 55% 0.00in /  0mm
19:23 73.7 °F /  23.2 °C 56.5 °F /  13.6 °C 29.99in /  1015.5hPa East 2.0mph /  3.2km/h 5.0mph /  8km/h 55% 0.00in /  0mm
19:28 73.5 °F /  23.1 °C 57.8 °F /  14.3 °C 29.99in /  1015.5hPa ESE 1.0mph /  1.6km/h 3.0mph /  4.8km/h 58% 0.00in /  0mm
19:33 73.2 °F /  22.9 °C 57.5 °F /  14.2 °C 29.99in /  1015.5hPa East 2.0mph /  3.2km/h 2.0mph /  3.2km/h 58% 0.00in /  0mm
19:34 73.2 °F /  22.9 °C 57.5 °F /  14.2 °C 29.99in /  1015.5hPa ESE 2.0mph /  3.2km/h 2.0mph /  3.2km/h 58% 0.00in /  0mm
19:36 73.1 °F /  22.8 °C 57.5 °F /  14.2 °C 29.99in /  1015.5hPa East 2.0mph /  3.2km/h 2.0mph /  3.2km/h 58% 0.00in /  0mm
19:39 73.0 °F /  22.8 °C 57.4 °F /  14.1 °C 29.99in /  1015.5hPa East 2.0mph /  3.2km/h 3.0mph /  4.8km/h 58% 0.00in /  0mm
19:41 72.9 °F /  22.7 °C 57.8 °F /  14.3 °C 29.99in /  1015.5hPa ESE 1.0mph /  1.6km/h 2.0mph /  3.2km/h 59% 0.00in /  0mm
19:45 72.7 °F /  22.6 °C 57.6 °F /  14.2 °C 29.99in /  1015.5hPa East 1.0mph /  1.6km/h 1.0mph /  1.6km/h 59% 0.00in /  0mm
19:50 72.4 °F /  22.4 °C 57.8 °F /  14.3 °C 29.99in /  1015.5hPa NE 1.0mph /  1.6km/h 3.0mph /  4.8km/h 60% 0.00in /  0mm
19:51 72.3 °F /  22.4 °C 57.7 °F /  14.3 °C 29.99in /  1015.5hPa NE 2.0mph /  3.2km/h 3.0mph /  4.8km/h 60% 0.00in /  0mm
19:56 72.0 °F /  22.2 °C 57.8 °F /  14.3 °C 29.99in /  1015.5hPa NE 2.0mph /  3.2km/h 2.0mph /  3.2km/h 61% 0.00in /  0mm
20:00 71.8 °F /  22.1 °C 57.6 °F /  14.2 °C 30.00in /  1015.8hPa NE 2.0mph /  3.2km/h 3.0mph /  4.8km/h 61% 0.00in /  0mm
20:01 71.8 °F /  22.1 °C 57.6 °F /  14.2 °C 30.00in /  1015.8hPa NE 1.0mph /  1.6km/h 2.0mph /  3.2km/h 61% 0.00in /  0mm
20:06 71.5 °F /  21.9 °C 57.8 °F /  14.3 °C 30.00in /  1015.8hPa NE 1.0mph /  1.6km/h 2.0mph /  3.2km/h 62% 0.00in /  0mm
20:11 71.4 °F /  21.9 °C 58.2 °F /  14.6 °C 29.99in /  1015.5hPa NE 1.0mph /  1.6km/h 2.0mph /  3.2km/h 63% 0.00in /  0mm
20:16 71.2 °F /  21.8 °C 58.0 °F /  14.4 °C 29.99in /  1015.5hPa NE 1.0mph /  1.6km/h 2.0mph /  3.2km/h 63% 0.00in /  0mm
20:21 71.0 °F /  21.7 °C 57.8 °F /  14.3 °C 29.99in /  1015.5hPa NE 2.0mph /  3.2km/h 3.0mph /  4.8km/h 63% 0.00in /  0mm
20:26 70.9 °F /  21.6 °C 57.7 °F /  14.3 °C 30.00in /  1015.8hPa NE 1.0mph /  1.6km/h 2.0mph /  3.2km/h 63% 0.00in /  0mm
20:27 70.8 °F /  21.6 °C 57.6 °F /  14.2 °C 30.00in /  1015.8hPa NE 1.0mph /  1.6km/h 2.0mph /  3.2km/h 63% 0.00in /  0mm
20:32 70.6 °F /  21.4 °C 57.8 °F /  14.3 °C 29.99in /  1015.5hPa NE 1.0mph /  1.6km/h 2.0mph /  3.2km/h 64% 0.00in /  0mm
20:33 70.6 °F /  21.4 °C 57.8 °F /  14.3 °C 29.99in /  1015.5hPa NE 1.0mph /  1.6km/h 2.0mph /  3.2km/h 64% 0.00in /  0mm
20:35 70.5 °F /  21.4 °C 57.8 °F /  14.3 °C 29.99in /  1015.5hPa NE 1.0mph /  1.6km/h 2.0mph /  3.2km/h 64% 0.00in /  0mm
20:37 70.4 °F /  21.3 °C 57.7 °F /  14.3 °C 29.99in /  1015.5hPa NE 1.0mph /  1.6km/h 2.0mph /  3.2km/h 64% 0.00in /  0mm
20:42 70.2 °F /  21.2 °C 57.9 °F /  14.4 °C 29.99in /  1015.5hPa NE 2.0mph /  3.2km/h 2.0mph /  3.2km/h 65% 0.00in /  0mm
20:47 69.8 °F /  21 °C 57.9 °F /  14.4 °C 29.99in /  1015.5hPa NE 1.0mph /  1.6km/h 1.0mph /  1.6km/h 66% 0.00in /  0mm
20:52 69.6 °F /  20.9 °C 57.8 °F /  14.3 °C 29.99in /  1015.5hPa NE 1.0mph /  1.6km/h 2.0mph /  3.2km/h 66% 0.00in /  0mm
20:54 69.4 °F /  20.8 °C 57.6 °F /  14.2 °C 29.99in /  1015.5hPa NE 2.0mph /  3.2km/h 2.0mph /  3.2km/h 66% 0.00in /  0mm
20:57 69.4 °F /  20.8 °C 57.6 °F /  14.2 °C 29.99in /  1015.5hPa NE 1.0mph /  1.6km/h 2.0mph /  3.2km/h 66% 0.00in /  0mm
20:58 69.4 °F /  20.8 °C 57.6 °F /  14.2 °C 29.99in /  1015.5hPa NE 1.0mph /  1.6km/h 2.0mph /  3.2km/h 66% 0.00in /  0mm
20:59 69.4 °F /  20.8 °C 57.6 °F /  14.2 °C 29.99in /  1015.5hPa NE 2.0mph /  3.2km/h 2.0mph /  3.2km/h 66% 0.00in /  0mm
21:04 69.4 °F /  20.8 °C 57.6 °F /  14.2 °C 29.99in /  1015.5hPa ENE 1.0mph /  1.6km/h 2.0mph /  3.2km/h 66% 0.00in /  0mm
21:09 69.3 °F /  20.7 °C 57.9 °F /  14.4 °C 29.99in /  1015.5hPa SE 1.0mph /  1.6km/h 2.0mph /  3.2km/h 67% 0.00in /  0mm
21:14 68.6 °F /  20.3 °C 58.4 °F /  14.7 °C 29.98in /  1015.1hPa ESE 2.0mph /  3.2km/h 2.0mph /  3.2km/h 70% 0.00in /  0mm
21:19 67.9 °F /  19.9 °C 58.2 °F /  14.6 °C 29.98in /  1015.1hPa Calm   2.0mph /  3.2km/h 71% 0.00in /  0mm
21:24 67.8 °F /  19.9 °C 57.7 °F /  14.3 °C 29.99in /  1015.5hPa NE 2.0mph /  3.2km/h 2.0mph /  3.2km/h 70% 0.00in /  0mm
21:29 68.1 °F /  20.1 °C 57.6 °F /  14.2 °C 29.99in /  1015.5hPa NE 2.0mph /  3.2km/h 2.0mph /  3.2km/h 69% 0.00in /  0mm
21:34 68.1 °F /  20.1 °C 57.6 °F /  14.2 °C 29.99in /  1015.5hPa ENE 2.0mph /  3.2km/h 2.0mph /  3.2km/h 69% 0.00in /  0mm
21:35 68.2 °F /  20.1 °C 57.7 °F /  14.3 °C 29.99in /  1015.5hPa ENE 2.0mph /  3.2km/h 2.0mph /  3.2km/h 69% 0.00in /  0mm
21:40 68.2 °F /  20.1 °C 57.7 °F /  14.3 °C 29.99in /  1015.5hPa ESE 1.0mph /  1.6km/h 3.0mph /  4.8km/h 69% 0.00in /  0mm
21:45 68.2 °F /  20.1 °C 57.7 °F /  14.3 °C 29.99in /  1015.5hPa Calm   1.0mph /  1.6km/h 69% 0.00in /  0mm
21:50 67.9 °F /  19.9 °C 57.4 °F /  14.1 °C 30.00in /  1015.8hPa ENE 1.0mph /  1.6km/h 2.0mph /  3.2km/h 69% 0.00in /  0mm
21:51 67.9 °F /  19.9 °C 57.4 °F /  14.1 °C 30.00in /  1015.8hPa ENE 1.0mph /  1.6km/h 2.0mph /  3.2km/h 69% 0.00in /  0mm
21:52 67.9 °F /  19.9 °C 57.4 °F /  14.1 °C 30.00in /  1015.8hPa ESE 2.0mph /  3.2km/h 2.0mph /  3.2km/h 69% 0.00in /  0mm
21:56 67.8 °F /  19.9 °C 57.3 °F /  14.1 °C 30.00in /  1015.8hPa Calm   2.0mph /  3.2km/h 69% 0.00in /  0mm
21:57 67.7 °F /  19.8 °C 57.2 °F /  14 °C 30.00in /  1015.8hPa Calm   2.0mph /  3.2km/h 69% 0.00in /  0mm
21:59 67.6 °F /  19.8 °C 57.5 °F /  14.2 °C 30.00in /  1015.8hPa ESE 1.0mph /  1.6km/h 1.0mph /  1.6km/h 70% 0.00in /  0mm
22:02 67.3 °F /  19.6 °C 57.2 °F /  14 °C 30.00in /  1015.8hPa ESE 1.0mph /  1.6km/h 2.0mph /  3.2km/h 70% 0.00in /  0mm
22:07 67.0 °F /  19.4 °C 57.3 °F /  14.1 °C 30.00in /  1015.8hPa Calm   1.0mph /  1.6km/h 71% 0.00in /  0mm
22:12 66.7 °F /  19.3 °C 57.0 °F /  13.9 °C 30.00in /  1015.8hPa ENE 1.0mph /  1.6km/h 2.0mph /  3.2km/h 71% 0.00in /  0mm
22:14 66.7 °F /  19.3 °C 57.0 °F /  13.9 °C 30.00in /  1015.8hPa East 2.0mph /  3.2km/h 3.0mph /  4.8km/h 71% 0.00in /  0mm
22:19 66.8 °F /  19.3 °C 57.1 °F /  13.9 °C 30.00in /  1015.8hPa East 1.0mph /  1.6km/h 2.0mph /  3.2km/h 71% 0.00in /  0mm
22:24 66.7 °F /  19.3 °C 56.6 °F /  13.7 °C 30.00in /  1015.8hPa ENE 2.0mph /  3.2km/h 3.0mph /  4.8km/h 70% 0.00in /  0mm
22:29 66.6 °F /  19.2 °C 56.9 °F /  13.8 °C 30.00in /  1015.8hPa Calm   1.0mph /  1.6km/h 71% 0.00in /  0mm
22:32 66.3 °F /  19.1 °C 56.6 °F /  13.7 °C 30.00in /  1015.8hPa ESE 1.0mph /  1.6km/h 1.0mph /  1.6km/h 71% 0.00in /  0mm
22:34 66.1 °F /  18.9 °C 56.8 °F /  13.8 °C 30.00in /  1015.8hPa Calm   1.0mph /  1.6km/h 72% 0.00in /  0mm
22:35 66.1 °F /  18.9 °C 56.8 °F /  13.8 °C 30.00in /  1015.8hPa Calm   1.0mph /  1.6km/h 72% 0.00in /  0mm
22:39 65.8 °F /  18.8 °C 56.9 °F /  13.8 °C 30.01in /  1016.1hPa ESE 1.0mph /  1.6km/h 1.0mph /  1.6km/h 73% 0.00in /  0mm
22:44 65.4 °F /  18.6 °C 56.9 °F /  13.8 °C 30.00in /  1015.8hPa SE 1.0mph /  1.6km/h 2.0mph /  3.2km/h 74% 0.00in /  0mm
22:45 65.4 °F /  18.6 °C 56.9 °F /  13.8 °C 30.00in /  1015.8hPa SE 1.0mph /  1.6km/h 2.0mph /  3.2km/h 74% 0.00in /  0mm
22:50 65.2 °F /  18.4 °C 57.1 °F /  13.9 °C 30.00in /  1015.8hPa ESE 1.0mph /  1.6km/h 1.0mph /  1.6km/h 75% 0.00in /  0mm
22:51 65.2 °F /  18.4 °C 57.1 °F /  13.9 °C 30.00in /  1015.8hPa ESE 2.0mph /  3.2km/h 2.0mph /  3.2km/h 75% 0.00in /  0mm
22:56 65.2 °F /  18.4 °C 56.7 °F /  13.7 °C 30.01in /  1016.1hPa East 1.0mph /  1.6km/h 1.0mph /  1.6km/h 74% 0.00in /  0mm
22:57 65.2 °F /  18.4 °C 56.7 °F /  13.7 °C 30.01in /  1016.1hPa ESE 1.0mph /  1.6km/h 2.0mph /  3.2km/h 74% 0.00in /  0mm
23:02 65.1 °F /  18.4 °C 56.6 °F /  13.7 °C 30.00in /  1015.8hPa ESE 1.0mph /  1.6km/h 1.0mph /  1.6km/h 74% 0.00in /  0mm
23:03 65.1 °F /  18.4 °C 56.6 °F /  13.7 °C 30.00in /  1015.8hPa ESE 1.0mph /  1.6km/h 1.0mph /  1.6km/h 74% 0.00in /  0mm
23:08 65.0 °F /  18.3 °C 56.5 °F /  13.6 °C 30.00in /  1015.8hPa Calm   2.0mph /  3.2km/h 74% 0.00in /  0mm
23:13 64.9 °F /  18.3 °C 56.8 °F /  13.8 °C 30.00in /  1015.8hPa ESE 1.0mph /  1.6km/h 2.0mph /  3.2km/h 75% 0.00in /  0mm
23:18 64.9 °F /  18.3 °C 56.8 °F /  13.8 °C 30.00in /  1015.8hPa ESE 1.0mph /  1.6km/h 3.0mph /  4.8km/h 75% 0.00in /  0mm
23:23 64.8 °F /  18.2 °C 56.7 °F /  13.7 °C 30.00in /  1015.8hPa Calm   2.0mph /  3.2km/h 75% 0.00in /  0mm
23:28 64.7 °F /  18.2 °C 56.6 °F /  13.7 °C 30.00in /  1015.8hPa ESE 2.0mph /  3.2km/h 2.0mph /  3.2km/h 75% 0.00in /  0mm
23:29 64.7 °F /  18.2 °C 56.6 °F /  13.7 °C 30.00in /  1015.8hPa ESE 2.0mph /  3.2km/h 2.0mph /  3.2km/h 75% 0.00in /  0mm
23:33 64.9 °F /  18.3 °C 56.8 °F /  13.8 °C 30.00in /  1015.8hPa ESE 1.0mph /  1.6km/h 2.0mph /  3.2km/h 75% 0.00in /  0mm
23:34 64.8 °F /  18.2 °C 56.7 °F /  13.7 °C 30.00in /  1015.8hPa SE 1.0mph /  1.6km/h 2.0mph /  3.2km/h 75% 0.00in /  0mm
23:35 64.8 °F /  18.2 °C 56.7 °F /  13.7 °C 30.00in /  1015.8hPa ESE 2.0mph /  3.2km/h 2.0mph /  3.2km/h 75% 0.00in /  0mm
23:36 64.8 °F /  18.2 °C 56.7 °F /  13.7 °C 30.00in /  1015.8hPa SE 2.0mph /  3.2km/h 2.0mph /  3.2km/h 75% 0.00in /  0mm
23:39 64.6 °F /  18.1 °C 56.5 °F /  13.6 °C 30.01in /  1016.1hPa ESE 2.0mph /  3.2km/h 3.0mph /  4.8km/h 75% 0.00in /  0mm
23:44 64.5 °F /  18.1 °C 56.8 °F /  13.8 °C 30.01in /  1016.1hPa ESE 2.0mph /  3.2km/h 2.0mph /  3.2km/h 76% 0.00in /  0mm
23:46 64.4 °F /  18 °C 56.7 °F /  13.7 °C 30.01in /  1016.1hPa ESE 2.0mph /  3.2km/h 2.0mph /  3.2km/h 76% 0.00in /  0mm
23:51 64.3 °F /  17.9 °C 56.6 °F /  13.7 °C 30.01in /  1016.1hPa ESE 2.0mph /  3.2km/h 3.0mph /  4.8km/h 76% 0.00in /  0mm
23:53 64.3 °F /  17.9 °C 56.6 °F /  13.7 °C 30.00in /  1015.8hPa ESE 1.0mph /  1.6km/h 3.0mph /  4.8km/h 76% 0.00in /  0mm
23:56 64.3 °F /  17.9 °C 56.6 °F /  13.7 °C 30.00in /  1015.8hPa ESE 1.0mph /  1.6km/h 2.0mph /  3.2km/h 76% 0.00in /  0mm
23:58 64.3 °F /  17.9 °C 56.6 °F /  13.7 °C 30.00in /  1015.8hPa ESE 2.0mph /  3.2km/h 2.0mph /  3.2km/h 76% 0.00in /  0mm
Compliments of Weather Underground